createdAt,value
2022-10-08T00:01:12.764Z,9.52
2022-10-08T00:03:46.723Z,9.51
2022-10-08T00:06:26.177Z,9.48
2022-10-08T00:09:01.041Z,9.63
2022-10-08T00:11:36.530Z,9.70
2022-10-08T00:14:18.065Z,9.74
2022-10-08T00:16:45.936Z,9.66
2022-10-08T00:19:22.227Z,9.72
2022-10-08T00:21:53.450Z,9.75
2022-10-08T00:24:25.828Z,9.72
2022-10-08T00:26:53.112Z,9.68
2022-10-08T00:29:32.014Z,9.57
2022-10-08T00:32:11.798Z,9.47
2022-10-08T00:35:02.605Z,9.41
2022-10-08T00:37:29.828Z,9.28
2022-10-08T00:40:07.218Z,9.12
2022-10-08T00:42:34.156Z,9.08
2022-10-08T00:45:01.496Z,9.11
2022-10-08T00:47:33.021Z,8.99
2022-10-08T00:50:13.852Z,9.16
2022-10-08T00:52:52.250Z,8.89
2022-10-08T00:55:28.536Z,8.81
2022-10-08T00:58:04.772Z,8.68
2022-10-08T01:00:33.477Z,8.87
2022-10-08T01:03:07.563Z,9.16
2022-10-08T01:06:01.666Z,9.22
2022-10-08T01:08:39.941Z,9.01
2022-10-08T01:11:36.606Z,8.92
2022-10-08T01:14:24.255Z,9.15
2022-10-08T01:17:10.706Z,9.26
2022-10-08T01:20:17.085Z,9.15
2022-10-08T01:23:11.408Z,9.15
2022-10-08T01:26:11.956Z,9.17
2022-10-08T01:28:52.631Z,9.22
2022-10-08T01:31:26.855Z,9.24
2022-10-08T01:34:04.171Z,9.25
2022-10-08T01:36:40.186Z,9.25
2022-10-08T01:39:18.591Z,9.28
2022-10-08T01:41:56.500Z,9.33
2022-10-08T01:44:30.627Z,9.29
2022-10-08T01:47:07.233Z,9.26
2022-10-08T01:49:40.593Z,9.07
2022-10-08T01:52:14.028Z,8.97
2022-10-08T01:54:43.395Z,8.84
2022-10-08T01:57:11.224Z,8.77
2022-10-08T01:59:52.691Z,9.05
2022-10-08T02:02:24.616Z,9.23
2022-10-08T02:04:56.053Z,9.28
2022-10-08T02:07:34.159Z,9.35
2022-10-08T02:10:14.062Z,9.34
2022-10-08T02:12:46.409Z,9.29
2022-10-08T02:15:46.042Z,9.29
2022-10-08T02:18:18.564Z,9.30
2022-10-08T02:20:56.699Z,9.31
2022-10-08T02:23:31.925Z,9.39
2022-10-08T02:25:59.578Z,9.32
2022-10-08T02:28:43.568Z,9.32
2022-10-08T02:31:32.111Z,9.36
2022-10-08T02:34:21.125Z,9.37
2022-10-08T02:36:54.207Z,9.38
2022-10-08T02:39:21.608Z,9.43
2022-10-08T02:41:52.384Z,9.46
2022-10-08T02:44:20.903Z,9.22
2022-10-08T02:46:50.746Z,9.08
2022-10-08T02:49:24.569Z,8.89
2022-10-08T02:52:08.380Z,8.72
2022-10-08T02:54:48.812Z,8.62
2022-10-08T02:57:27.722Z,8.72
2022-10-08T02:59:54.711Z,8.85
2022-10-08T03:02:39.707Z,9.00
2022-10-08T03:05:13.400Z,9.06
2022-10-08T03:07:40.191Z,9.07
2022-10-08T03:10:07.919Z,9.06
2022-10-08T03:12:39.914Z,9.01
2022-10-08T03:15:11.412Z,9.16
2022-10-08T03:17:45.098Z,9.23
2022-10-08T03:20:12.242Z,9.29
2022-10-08T03:22:39.195Z,9.29
2022-10-08T03:25:06.264Z,9.20
2022-10-08T03:27:35.360Z,9.22
2022-10-08T03:30:03.793Z,9.23
2022-10-08T03:32:31.080Z,9.27
2022-10-08T03:34:57.972Z,9.30
2022-10-08T03:37:25.064Z,9.40
2022-10-08T03:39:52.277Z,9.51
2022-10-08T03:42:19.142Z,9.61
2022-10-08T03:44:45.930Z,9.62
2022-10-08T03:47:12.930Z,9.62
2022-10-08T03:49:41.826Z,9.62
2022-10-08T03:52:08.793Z,9.71
2022-10-08T03:54:38.658Z,9.79
2022-10-08T03:57:05.546Z,9.81
2022-10-08T03:59:32.413Z,9.84
2022-10-08T04:01:59.445Z,9.89
2022-10-08T04:04:26.549Z,9.85
2022-10-08T04:06:53.595Z,9.83
2022-10-08T04:09:20.813Z,9.76
2022-10-08T04:11:49.151Z,9.79
2022-10-08T04:14:18.487Z,9.77
2022-10-08T04:16:45.434Z,9.78
2022-10-08T04:19:13.715Z,9.89
2022-10-08T04:21:40.584Z,9.90
2022-10-08T04:24:09.374Z,9.92
2022-10-08T04:26:36.209Z,9.87
2022-10-08T04:29:03.007Z,9.79
2022-10-08T04:31:29.902Z,9.75
2022-10-08T04:33:57.011Z,9.82
2022-10-08T04:36:24.908Z,9.96
2022-10-08T04:38:51.985Z,9.94
2022-10-08T04:41:21.865Z,9.87
2022-10-08T04:43:48.572Z,9.91
2022-10-08T04:46:17.441Z,9.97
2022-10-08T04:48:49.167Z,10.01
2022-10-08T04:51:16.953Z,10.02
2022-10-08T04:53:44.163Z,10.00
2022-10-08T04:56:19.897Z,10.00
2022-10-08T04:58:47.541Z,9.92
2022-10-08T05:01:16.387Z,9.98
2022-10-08T05:03:45.819Z,9.96
2022-10-08T05:06:16.732Z,9.91
2022-10-08T05:08:44.464Z,9.90
2022-10-08T05:11:11.302Z,9.90
2022-10-08T05:13:38.381Z,9.87
2022-10-08T05:16:14.315Z,9.85
2022-10-08T05:18:42.139Z,9.84
2022-10-08T05:21:11.751Z,9.84
2022-10-08T05:23:38.855Z,9.81
2022-10-08T05:26:16.062Z,9.80
2022-10-08T05:28:44.023Z,9.75
2022-10-08T05:31:10.911Z,9.75
2022-10-08T05:33:37.753Z,9.75
2022-10-08T05:36:08.689Z,9.64
2022-10-08T05:38:35.859Z,9.53
2022-10-08T05:41:23.700Z,9.62
2022-10-08T05:43:51.391Z,9.68
2022-10-08T05:46:21.009Z,9.69
2022-10-08T05:48:56.660Z,9.70
2022-10-08T05:51:23.856Z,9.68
2022-10-08T05:53:52.326Z,9.55
2022-10-08T05:56:20.738Z,9.49
2022-10-08T05:58:50.699Z,9.57
2022-10-08T06:01:29.628Z,9.43
2022-10-08T06:04:07.071Z,9.43
2022-10-08T06:06:35.910Z,9.52
2022-10-08T06:09:02.728Z,9.53
2022-10-08T06:11:33.792Z,9.42
2022-10-08T06:14:01.273Z,9.51
2022-10-08T06:16:29.530Z,9.36
2022-10-08T06:18:56.508Z,9.28
2022-10-08T06:21:25.026Z,9.41
2022-10-08T06:23:57.217Z,9.44
2022-10-08T06:26:27.369Z,9.40
2022-10-08T06:28:56.562Z,9.38
2022-10-08T06:31:23.329Z,9.37
2022-10-08T06:33:50.055Z,9.46
2022-10-08T06:36:23.775Z,9.48
2022-10-08T06:38:58.030Z,9.43
2022-10-08T06:41:25.958Z,9.42
2022-10-08T06:44:08.208Z,9.47
2022-10-08T06:46:40.817Z,9.57
2022-10-08T06:49:12.888Z,9.71
2022-10-08T06:51:40.081Z,9.82
2022-10-08T06:54:10.049Z,9.88
2022-10-08T06:56:45.286Z,9.92
2022-10-08T06:59:12.417Z,9.97
2022-10-08T07:01:39.536Z,10.10
2022-10-08T07:04:11.201Z,10.18
2022-10-08T07:06:38.200Z,10.36
2022-10-08T07:09:07.288Z,10.41
2022-10-08T07:11:36.456Z,10.37
2022-10-08T07:14:03.306Z,10.33
2022-10-08T07:16:30.686Z,10.39
2022-10-08T07:19:00.512Z,10.43
2022-10-08T07:21:30.521Z,10.53
2022-10-08T07:24:02.952Z,10.61
2022-10-08T07:26:52.436Z,10.79
2022-10-08T07:29:25.933Z,10.99
2022-10-08T07:31:56.988Z,11.07
2022-10-08T07:34:23.948Z,11.09
2022-10-08T07:36:50.738Z,11.12
2022-10-08T07:39:20.240Z,11.23
2022-10-08T07:41:47.571Z,11.25
2022-10-08T07:44:15.686Z,11.14
2022-10-08T07:46:44.622Z,11.27
2022-10-08T07:49:16.612Z,11.37
2022-10-08T07:59:18.546Z,11.52
2022-10-08T08:01:48.034Z,11.61
2022-10-08T08:15:01.378Z,12.05
2022-10-08T08:18:44.985Z,12.00
2022-10-08T08:21:16.533Z,12.20
2022-10-08T08:23:45.161Z,12.24
2022-10-08T08:48:34.202Z,12.56
2022-10-08T08:51:01.017Z,12.78
2022-10-08T08:53:28.068Z,12.80
2022-10-08T08:55:57.213Z,12.76
2022-10-08T08:58:40.685Z,12.67
2022-10-08T09:01:17.418Z,12.83
2022-10-08T09:03:47.490Z,13.01
2022-10-08T09:06:17.281Z,12.99
2022-10-08T09:08:48.644Z,13.08
2022-10-08T09:11:17.776Z,13.26
2022-10-08T09:13:57.149Z,13.10
2022-10-08T09:16:25.471Z,13.13
2022-10-08T09:18:53.121Z,13.29
2022-10-08T09:21:20.429Z,13.47
2022-10-08T09:23:47.539Z,13.39
2022-10-08T09:26:22.282Z,13.50
2022-10-08T09:28:54.467Z,13.50
2022-10-08T09:31:26.190Z,13.28
2022-10-08T09:34:10.488Z,13.16
2022-10-08T09:36:42.904Z,13.10
2022-10-08T09:39:26.759Z,13.10
2022-10-08T09:42:09.376Z,13.07
2022-10-08T09:44:41.787Z,13.08
2022-10-08T09:47:17.008Z,12.97
2022-10-08T09:49:45.004Z,12.80
2022-10-08T09:52:26.081Z,12.96
2022-10-08T09:54:57.315Z,13.12
2022-10-08T09:57:24.113Z,13.01
2022-10-08T09:59:53.971Z,13.03
2022-10-08T10:02:35.389Z,13.05
2022-10-08T10:05:07.796Z,13.07
2022-10-08T10:07:43.131Z,13.27
2022-10-08T10:10:16.945Z,13.38
2022-10-08T10:12:46.743Z,13.46
2022-10-08T10:15:24.737Z,13.39
2022-10-08T10:17:56.508Z,13.34
2022-10-08T10:20:33.498Z,13.39
2022-10-08T10:23:12.404Z,13.46
2022-10-08T10:25:44.791Z,13.29
2022-10-08T10:28:16.310Z,13.25
2022-10-08T10:30:51.326Z,13.29
2022-10-08T10:33:21.916Z,13.41
2022-10-08T10:35:52.813Z,13.34
2022-10-08T10:38:28.402Z,13.54
2022-10-08T10:41:18.093Z,13.74
2022-10-08T10:43:51.079Z,13.78
2022-10-08T10:46:25.489Z,13.59
2022-10-08T10:48:52.372Z,13.21
2022-10-08T10:51:41.273Z,13.07
2022-10-08T10:54:13.855Z,12.92
2022-10-08T10:56:47.785Z,12.96
2022-10-08T10:59:38.729Z,12.92
2022-10-08T11:02:05.323Z,12.82
2022-10-08T11:04:52.190Z,12.92
2022-10-08T11:07:29.948Z,12.87
2022-10-08T11:10:05.646Z,12.84
2022-10-08T11:12:44.342Z,12.84
2022-10-08T11:15:30.214Z,12.71
2022-10-08T11:18:12.669Z,12.99
2022-10-08T11:20:52.276Z,12.90
2022-10-08T11:23:42.291Z,12.85
2022-10-08T11:26:22.894Z,12.74
2022-10-08T11:29:17.245Z,12.78
2022-10-08T11:31:48.542Z,12.83
2022-10-08T11:34:20.688Z,12.95
2022-10-08T11:36:53.153Z,13.06
2022-10-08T11:39:22.134Z,13.39
2022-10-08T11:41:57.783Z,13.30
2022-10-08T11:44:26.827Z,13.30
2022-10-08T11:46:53.494Z,13.36
2022-10-08T11:49:20.128Z,13.18
2022-10-08T11:51:50.012Z,13.23
2022-10-08T11:54:34.840Z,12.98
2022-10-08T11:57:13.431Z,13.14
2022-10-08T11:59:48.972Z,13.21
2022-10-08T12:02:28.837Z,13.25
2022-10-08T12:04:58.047Z,13.18
2022-10-08T12:07:34.872Z,13.42
2022-10-08T12:10:07.725Z,13.38
2022-10-08T12:12:49.747Z,13.48
2022-10-08T12:15:27.818Z,13.39
2022-10-08T12:17:58.800Z,13.35
2022-10-08T12:20:33.375Z,13.75
2022-10-08T12:23:07.356Z,14.14
2022-10-08T12:25:37.205Z,13.98
2022-10-08T12:28:30.289Z,13.55
2022-10-08T12:30:58.639Z,13.49
2022-10-08T12:33:26.383Z,13.47
2022-10-08T12:36:20.324Z,13.61
2022-10-08T12:38:51.315Z,13.68
2022-10-08T12:41:21.698Z,13.73
2022-10-08T12:44:07.262Z,13.75
2022-10-08T12:46:50.521Z,13.58
2022-10-08T12:49:28.122Z,13.53
2022-10-08T12:52:17.052Z,13.62
2022-10-08T12:54:49.421Z,13.67
2022-10-08T12:57:23.878Z,13.80
2022-10-08T12:59:50.787Z,13.83
2022-10-08T13:02:26.140Z,13.97
2022-10-08T13:04:52.994Z,14.33
2022-10-08T13:07:26.345Z,14.46
2022-10-08T13:09:58.699Z,14.75
2022-10-08T13:12:25.796Z,15.39
2022-10-08T13:15:21.143Z,15.40
2022-10-08T13:17:48.049Z,15.10
2022-10-08T13:20:18.637Z,15.21
2022-10-08T13:22:45.424Z,15.01
2022-10-08T13:25:31.817Z,14.39
2022-10-08T13:28:13.974Z,14.17
2022-10-08T13:30:42.125Z,13.95
2022-10-08T13:33:25.166Z,13.84
2022-10-08T13:35:54.586Z,13.75
2022-10-08T13:38:24.076Z,13.65
2022-10-08T13:40:58.655Z,13.77
2022-10-08T13:43:26.370Z,14.20
2022-10-08T13:45:53.075Z,14.47
2022-10-08T13:48:19.854Z,14.72
2022-10-08T13:50:50.194Z,14.56
2022-10-08T13:53:22.265Z,14.85
2022-10-08T13:55:50.146Z,15.27
2022-10-08T13:58:19.173Z,15.47
2022-10-08T14:00:46.986Z,15.75
2022-10-08T14:03:14.192Z,15.28
2022-10-08T14:05:43.517Z,15.24
2022-10-08T14:08:16.990Z,15.42
2022-10-08T14:10:44.202Z,15.26
2022-10-08T14:13:13.139Z,15.33
2022-10-08T14:15:39.957Z,15.30
2022-10-08T14:18:07.008Z,15.04
2022-10-08T14:20:34.805Z,14.84
2022-10-08T14:23:01.701Z,14.82
2022-10-08T14:25:31.961Z,15.12
2022-10-08T14:28:00.915Z,14.81
2022-10-08T14:30:28.178Z,14.80
2022-10-08T14:32:54.983Z,15.03
2022-10-08T14:35:22.202Z,14.82
2022-10-08T14:37:49.252Z,14.54
2022-10-08T14:40:20.279Z,14.20
2022-10-08T14:42:47.685Z,14.17
2022-10-08T14:45:15.034Z,14.35
2022-10-08T14:47:42.400Z,14.21
2022-10-08T14:50:09.518Z,14.07
2022-10-08T14:52:43.220Z,13.92
2022-10-08T14:55:11.141Z,13.81
2022-10-08T14:57:37.879Z,13.85
2022-10-08T15:00:05.625Z,13.84
2022-10-08T15:02:34.511Z,13.85
2022-10-08T15:05:01.846Z,14.11
2022-10-08T15:07:28.825Z,14.06
2022-10-08T15:09:55.511Z,14.24
2022-10-08T15:12:22.286Z,14.58
2022-10-08T15:14:49.193Z,15.23
2022-10-08T15:17:15.890Z,16.36
2022-10-08T15:19:42.580Z,15.21
2022-10-08T15:22:09.280Z,14.30
2022-10-08T15:24:36.038Z,13.68
2022-10-08T15:27:02.751Z,14.02
2022-10-08T15:29:29.573Z,13.81
2022-10-08T15:31:56.490Z,13.79
2022-10-08T15:34:23.246Z,14.42
2022-10-08T15:36:49.990Z,13.93
2022-10-08T15:39:18.320Z,13.48
2022-10-08T15:41:47.341Z,13.18
2022-10-08T15:44:22.602Z,12.90
2022-10-08T15:46:53.089Z,12.82
2022-10-08T15:49:21.833Z,12.67
2022-10-08T15:51:48.518Z,12.53
2022-10-08T15:54:15.185Z,12.47
2022-10-08T15:56:41.946Z,12.30
2022-10-08T15:59:08.636Z,12.21
2022-10-08T16:01:35.447Z,12.27
2022-10-08T16:04:02.358Z,12.21
2022-10-08T16:06:32.721Z,12.12
2022-10-08T16:08:59.909Z,12.05
2022-10-08T16:11:33.895Z,11.84
2022-10-08T16:14:03.469Z,11.66
2022-10-08T16:16:30.637Z,11.60
2022-10-08T16:19:02.270Z,11.59
2022-10-08T16:21:30.571Z,11.71
2022-10-08T16:23:58.164Z,11.59
2022-10-08T16:26:25.429Z,11.61
2022-10-08T16:28:57.026Z,11.52
2022-10-08T16:31:25.706Z,11.39
2022-10-08T16:34:00.022Z,11.29
2022-10-08T16:36:28.315Z,11.31
2022-10-08T16:38:55.528Z,11.24
2022-10-08T16:41:24.969Z,11.23
2022-10-08T16:43:52.834Z,11.29
2022-10-08T16:46:22.176Z,11.23
2022-10-08T16:49:06.553Z,11.21
2022-10-08T16:51:36.383Z,11.18
2022-10-08T16:54:05.752Z,11.14
2022-10-08T16:56:35.970Z,11.17
2022-10-08T16:59:07.269Z,11.11
2022-10-08T17:01:35.225Z,10.99
2022-10-08T17:04:02.146Z,10.99
2022-10-08T17:06:29.292Z,10.99
2022-10-08T17:08:56.063Z,10.97
2022-10-08T17:11:22.813Z,10.77
2022-10-08T17:13:51.911Z,10.67
2022-10-08T17:16:20.678Z,10.56
2022-10-08T17:18:50.549Z,10.55
2022-10-08T17:21:17.549Z,10.60
2022-10-08T17:23:44.306Z,10.57
2022-10-08T17:26:13.518Z,10.46
2022-10-08T17:28:42.434Z,10.39
2022-10-08T17:31:12.937Z,10.32
2022-10-08T17:33:40.927Z,10.27
2022-10-08T17:36:10.149Z,10.17
2022-10-08T17:38:37.480Z,10.17
2022-10-08T17:41:15.450Z,10.13
2022-10-08T17:43:42.996Z,10.21
2022-10-08T17:46:15.581Z,10.06
2022-10-08T17:48:42.991Z,9.99
2022-10-08T17:51:13.315Z,10.08
2022-10-08T17:53:40.156Z,9.99
2022-10-08T17:56:09.529Z,9.98
2022-10-08T17:58:36.387Z,10.08
2022-10-08T18:01:22.328Z,10.12
2022-10-08T18:04:00.042Z,10.06
2022-10-08T18:06:27.343Z,10.00
2022-10-08T18:08:58.619Z,10.09
2022-10-08T18:11:26.115Z,9.97
2022-10-08T18:13:53.297Z,9.82
2022-10-08T18:16:21.151Z,9.79
2022-10-08T18:18:48.705Z,9.81
2022-10-08T18:21:17.610Z,9.75
2022-10-08T18:23:46.694Z,9.77
2022-10-08T18:26:20.256Z,9.79
2022-10-08T18:28:48.904Z,9.78
2022-10-08T18:31:16.362Z,9.73
2022-10-08T18:33:45.141Z,9.74
2022-10-08T18:36:14.573Z,9.68
2022-10-08T18:38:43.041Z,9.63
2022-10-08T18:41:14.676Z,9.77
2022-10-08T18:43:41.665Z,9.70
2022-10-08T18:46:08.999Z,9.59
2022-10-08T18:48:36.075Z,9.48
2022-10-08T18:51:04.986Z,9.64
2022-10-08T18:53:33.626Z,9.60
2022-10-08T18:56:00.710Z,9.46
2022-10-08T18:58:27.837Z,9.45
2022-10-08T19:00:55.827Z,9.40
2022-10-08T19:03:24.478Z,9.37
2022-10-08T19:05:52.114Z,9.28
2022-10-08T19:08:19.029Z,9.28
2022-10-08T19:10:45.848Z,9.45
2022-10-08T19:13:12.685Z,9.38
2022-10-08T19:15:39.792Z,9.35
2022-10-08T19:18:07.633Z,9.24
2022-10-08T19:20:35.461Z,9.19
2022-10-08T19:23:04.942Z,9.14
2022-10-08T19:28:20.510Z,9.22
2022-10-08T19:30:50.613Z,9.25
2022-10-08T19:33:17.620Z,9.27
2022-10-08T19:35:47.120Z,9.17
2022-10-08T19:38:23.722Z,9.10
2022-10-08T19:40:53.274Z,9.15
2022-10-08T19:43:20.199Z,9.14
2022-10-08T19:45:47.334Z,9.05
2022-10-08T19:48:14.097Z,8.98
2022-10-08T19:50:41.991Z,8.89
2022-10-08T19:53:09.845Z,8.78
2022-10-08T19:55:38.375Z,8.83
2022-10-08T19:58:05.159Z,8.84
2022-10-08T20:00:31.978Z,8.87
2022-10-08T20:02:58.882Z,8.85
2022-10-08T20:05:25.964Z,8.89
2022-10-08T20:07:52.706Z,8.92
2022-10-08T20:10:19.509Z,8.81
2022-10-08T20:12:47.046Z,8.79
2022-10-08T20:15:14.354Z,8.75
2022-10-08T20:17:41.155Z,8.79
2022-10-08T20:20:28.134Z,8.72
2022-10-08T20:22:55.225Z,8.67
2022-10-08T20:25:22.206Z,8.65
2022-10-08T20:27:49.219Z,8.64
2022-10-08T20:30:16.133Z,8.72
2022-10-08T20:32:42.967Z,8.74
2022-10-08T20:35:10.040Z,8.70
2022-10-08T20:37:36.866Z,8.65
2022-10-08T20:40:06.610Z,8.73
2022-10-08T20:42:33.750Z,8.60
2022-10-08T20:45:00.587Z,8.49
2022-10-08T20:47:27.361Z,8.50
2022-10-08T20:49:54.163Z,8.53
2022-10-08T20:52:21.018Z,8.48
2022-10-08T20:54:47.809Z,8.43
2022-10-08T20:57:14.658Z,8.38
2022-10-08T20:59:41.525Z,8.43
2022-10-08T21:02:10.388Z,8.44
2022-10-08T21:04:37.736Z,8.42
2022-10-08T21:07:08.912Z,8.45
2022-10-08T21:09:35.844Z,8.48
2022-10-08T21:12:03.038Z,8.52
2022-10-08T21:14:32.057Z,8.65
2022-10-08T21:17:08.682Z,8.61
2022-10-08T21:19:35.572Z,8.55
2022-10-08T21:22:02.336Z,8.56
2022-10-08T21:24:29.226Z,8.65
2022-10-08T21:26:56.653Z,8.48
2022-10-08T21:29:23.629Z,8.59
2022-10-08T21:31:50.470Z,8.63
2022-10-08T21:34:17.421Z,8.61
2022-10-08T21:36:44.859Z,8.58
2022-10-08T21:39:15.949Z,8.52
2022-10-08T21:41:43.587Z,8.55
2022-10-08T21:44:10.560Z,8.47
2022-10-08T21:46:41.899Z,8.48
2022-10-08T21:49:12.459Z,8.45
2022-10-08T21:51:39.287Z,8.60
2022-10-08T21:54:11.953Z,8.64
2022-10-08T21:56:39.873Z,8.68
2022-10-08T21:59:08.767Z,8.70
2022-10-08T22:01:39.515Z,8.52
2022-10-08T22:04:17.009Z,8.44
2022-10-08T22:06:46.502Z,8.32
2022-10-08T22:09:16.207Z,8.23
2022-10-08T22:11:43.046Z,8.16
2022-10-08T22:14:10.049Z,8.13
2022-10-08T22:16:37.434Z,8.06
2022-10-08T22:19:04.868Z,8.08
2022-10-08T22:21:31.819Z,8.19
2022-10-08T22:23:58.628Z,8.01
2022-10-08T22:26:34.040Z,7.98
2022-10-08T22:29:01.296Z,7.86
2022-10-08T22:31:28.586Z,8.02
2022-10-08T22:33:55.544Z,7.83
2022-10-08T22:36:25.090Z,7.76
2022-10-08T22:38:52.691Z,7.74
2022-10-08T22:41:24.097Z,7.94
2022-10-08T22:43:50.982Z,7.76
2022-10-08T22:46:21.820Z,7.74
2022-10-08T22:48:48.560Z,7.74
2022-10-08T22:51:18.182Z,7.83
2022-10-08T22:53:45.298Z,7.83
2022-10-08T22:56:15.495Z,7.77
2022-10-08T22:58:42.290Z,7.75
2022-10-08T23:01:11.562Z,7.72
2022-10-08T23:03:38.946Z,7.73
2022-10-08T23:06:20.083Z,7.70
2022-10-08T23:08:48.559Z,7.77
2022-10-08T23:11:16.674Z,7.69
2022-10-08T23:13:46.978Z,7.58
2022-10-08T23:16:15.277Z,7.61
2022-10-08T23:18:46.540Z,7.61
2022-10-08T23:21:16.021Z,7.54
2022-10-08T23:23:44.344Z,7.58
2022-10-08T23:26:13.603Z,7.46
2022-10-08T23:28:40.665Z,7.51
2022-10-08T23:31:19.047Z,7.42
2022-10-08T23:33:47.775Z,7.40
2022-10-08T23:36:17.706Z,7.49
2022-10-08T23:38:44.603Z,7.49
2022-10-08T23:41:12.397Z,7.39
2022-10-08T23:43:41.741Z,7.35
2022-10-08T23:46:10.055Z,7.21
2022-10-08T23:48:36.882Z,7.23
2022-10-08T23:51:04.379Z,7.14
2022-10-08T23:53:31.678Z,7.17
2022-10-08T23:55:58.539Z,7.11
2022-10-08T23:58:25.829Z,7.12
